Beerse, Belgium
Current Conditions -  °F | °C
As of 11:55 PM on Saturday 25 Oct 2014 (Local Time) from EHGR Reporting Station
Broken Clouds Broken Clouds  
Wind Chill: 46°   Ceiling: 4600
Heat Index: 48°   Visibility: 6mi
Dew Point: 45°   Wind: 6mph
Humidity: 87%   Direction: 200°SSW
Pressure: 30.18"   Gusts: NA
Location:  51.32°N, 4.85°E
Report Text: EHGR 252155Z AUTO 20005KT 9999 BKN046 09/07 Q1022 BLU
Loading
Personal Weather Stations






























Interactive Weather Map
Tropical Storm Tracking
New forecast layout! Learn more

10-Day Weather Forecast

Advertisements
Track Severe Weather on mobile